sensor_id;sensor_type;location;lat;lon;timestamp;P1;durP1;ratioP1;P2;durP2;ratioP2
1747;SDS011;871;47.034;15.394;2022-12-18T05:02:35;38.25;;;10.65;;
1747;SDS011;871;47.034;15.394;2022-12-18T05:05:01;43.88;;;11.73;;
1747;SDS011;871;47.034;15.394;2022-12-18T05:07:27;41.53;;;11.15;;
1747;SDS011;871;47.034;15.394;2022-12-18T05:09:55;40.83;;;10.90;;
1747;SDS011;871;47.034;15.394;2022-12-18T05:12:21;40.35;;;11.40;;
1747;SDS011;871;47.034;15.394;2022-12-18T05:14:47;40.55;;;10.00;;
1747;SDS011;871;47.034;15.394;2022-12-18T05:17:13;40.72;;;9.85;;
1747;SDS011;871;47.034;15.394;2022-12-18T05:19:39;41.17;;;9.23;;
1747;SDS011;871;47.034;15.394;2022-12-18T05:22:05;40.90;;;10.65;;
1747;SDS011;871;47.034;15.394;2022-12-18T05:24:31;42.33;;;10.07;;
1747;SDS011;871;47.034;15.394;2022-12-18T05:26:57;42.38;;;10.98;;
1747;SDS011;871;47.034;15.394;2022-12-18T05:29:25;46.10;;;11.00;;
1747;SDS011;871;47.034;15.394;2022-12-18T05:31:51;43.53;;;10.07;;
1747;SDS011;871;47.034;15.394;2022-12-18T05:34:18;40.17;;;8.82;;
1747;SDS011;871;47.034;15.394;2022-12-18T05:36:44;44.85;;;11.18;;
1747;SDS011;871;47.034;15.394;2022-12-18T05:39:10;41.28;;;8.82;;
1747;SDS011;871;47.034;15.394;2022-12-18T05:41:36;48.17;;;10.70;;
1747;SDS011;871;47.034;15.394;2022-12-18T05:44:02;41.72;;;9.90;;
1747;SDS011;871;47.034;15.394;2022-12-18T05:46:28;48.85;;;10.73;;
1747;SDS011;871;47.034;15.394;2022-12-18T05:48:58;44.53;;;9.32;;
1747;SDS011;871;47.034;15.394;2022-12-18T05:51:24;49.00;;;11.40;;
1747;SDS011;871;47.034;15.394;2022-12-18T05:53:50;46.67;;;11.05;;
1747;SDS011;871;47.034;15.394;2022-12-18T05:56:19;48.67;;;9.77;;
1747;SDS011;871;47.034;15.394;2022-12-18T05:58:46;47.50;;;10.52;;
1747;SDS011;871;47.034;15.394;2022-12-18T06:01:14;47.85;;;10.55;;
1747;SDS011;871;47.034;15.394;2022-12-18T06:03:40;42.70;;;8.80;;
1747;SDS011;871;47.034;15.394;2022-12-18T06:06:13;55.35;;;13.57;;
1747;SDS011;871;47.034;15.394;2022-12-18T06:08:40;57.63;;;12.55;;
1747;SDS011;871;47.034;15.394;2022-12-18T06:11:06;50.33;;;11.10;;
1747;SDS011;871;47.034;15.394;2022-12-18T06:13:32;45.38;;;10.00;;
1747;SDS011;871;47.034;15.394;2022-12-18T06:16:01;48.35;;;11.32;;
1747;SDS011;871;47.034;15.394;2022-12-18T06:18:27;48.58;;;11.68;;
1747;SDS011;871;47.034;15.394;2022-12-18T06:20:56;47.58;;;12.68;;
1747;SDS011;871;47.034;15.394;2022-12-18T06:23:23;47.53;;;9.60;;
1747;SDS011;871;47.034;15.394;2022-12-18T06:25:50;49.40;;;11.10;;
1747;SDS011;871;47.034;15.394;2022-12-18T06:28:17;45.22;;;10.50;;
1747;SDS011;871;47.034;15.394;2022-12-18T06:30:43;47.83;;;10.07;;
1747;SDS011;871;47.034;15.394;2022-12-18T06:33:10;52.60;;;12.43;;
1747;SDS011;871;47.034;15.394;2022-12-18T06:35:36;51.42;;;11.00;;
1747;SDS011;871;47.034;15.394;2022-12-18T06:38:02;51.15;;;12.77;;
1747;SDS011;871;47.034;15.394;2022-12-18T06:40:28;47.92;;;11.73;;
1747;SDS011;871;47.034;15.394;2022-12-18T06:42:54;51.83;;;12.52;;
1747;SDS011;871;47.034;15.394;2022-12-18T06:45:20;51.58;;;12.80;;
1747;SDS011;871;47.034;15.394;2022-12-18T06:47:47;48.45;;;11.85;;
1747;SDS011;871;47.034;15.394;2022-12-18T06:50:14;51.80;;;12.63;;
1747;SDS011;871;47.034;15.394;2022-12-18T06:52:40;46.65;;;11.63;;
1747;SDS011;871;47.034;15.394;2022-12-18T06:55:07;46.55;;;10.40;;
1747;SDS011;871;47.034;15.394;2022-12-18T06:57:34;51.83;;;11.95;;
1747;SDS011;871;47.034;15.394;2022-12-18T07:00:00;48.88;;;12.10;;
1747;SDS011;871;47.034;15.394;2022-12-18T07:02:26;49.45;;;13.27;;
1747;SDS011;871;47.034;15.394;2022-12-18T07:04:52;49.78;;;11.88;;
1747;SDS011;871;47.034;15.394;2022-12-18T07:07:19;56.15;;;15.32;;
1747;SDS011;871;47.034;15.394;2022-12-18T07:09:45;51.90;;;12.30;;
1747;SDS011;871;47.034;15.394;2022-12-18T07:12:11;48.80;;;12.90;;
1747;SDS011;871;47.034;15.394;2022-12-18T07:14:37;45.88;;;12.25;;
1747;SDS011;871;47.034;15.394;2022-12-18T07:17:03;46.72;;;12.27;;
1747;SDS011;871;47.034;15.394;2022-12-18T07:19:29;55.10;;;13.52;;
1747;SDS011;871;47.034;15.394;2022-12-18T07:21:55;48.55;;;12.10;;
1747;SDS011;871;47.034;15.394;2022-12-18T07:24:21;49.33;;;12.57;;
1747;SDS011;871;47.034;15.394;2022-12-18T07:26:48;48.53;;;13.05;;
1747;SDS011;871;47.034;15.394;2022-12-18T07:29:16;53.30;;;12.35;;
1747;SDS011;871;47.034;15.394;2022-12-18T07:31:42;58.35;;;14.55;;
1747;SDS011;871;47.034;15.394;2022-12-18T07:34:11;50.78;;;13.18;;
1747;SDS011;871;47.034;15.394;2022-12-18T07:36:42;50.00;;;13.43;;
1747;SDS011;871;47.034;15.394;2022-12-18T07:39:08;52.30;;;14.25;;
1747;SDS011;871;47.034;15.394;2022-12-18T07:41:34;61.60;;;14.50;;
1747;SDS011;871;47.034;15.394;2022-12-18T07:44:00;55.83;;;13.60;;
1747;SDS011;871;47.034;15.394;2022-12-18T07:46:26;52.22;;;13.93;;
1747;SDS011;871;47.034;15.394;2022-12-18T07:48:52;51.70;;;14.13;;
1747;SDS011;871;47.034;15.394;2022-12-18T07:51:18;61.10;;;17.00;;
1747;SDS011;871;47.034;15.394;2022-12-18T07:53:44;55.88;;;15.80;;
1747;SDS011;871;47.034;15.394;2022-12-18T07:56:12;55.90;;;15.93;;
1747;SDS011;871;47.034;15.394;2022-12-18T07:58:39;51.67;;;15.40;;
1747;SDS011;871;47.034;15.394;2022-12-18T08:01:06;59.45;;;16.48;;
1747;SDS011;871;47.034;15.394;2022-12-18T08:03:32;56.75;;;16.70;;
1747;SDS011;871;47.034;15.394;2022-12-18T08:05:59;55.00;;;15.60;;
1747;SDS011;871;47.034;15.394;2022-12-18T08:08:26;52.42;;;15.32;;
1747;SDS011;871;47.034;15.394;2022-12-18T08:10:52;52.65;;;16.35;;
1747;SDS011;871;47.034;15.394;2022-12-18T08:13:18;55.15;;;13.93;;
1747;SDS011;871;47.034;15.394;2022-12-18T08:15:44;55.13;;;14.32;;
1747;SDS011;871;47.034;15.394;2022-12-18T08:18:10;50.90;;;14.13;;
1747;SDS011;871;47.034;15.394;2022-12-18T08:20:36;61.85;;;15.88;;
1747;SDS011;871;47.034;15.394;2022-12-18T08:23:02;53.10;;;14.57;;
1747;SDS011;871;47.034;15.394;2022-12-18T08:25:28;57.03;;;15.50;;
1747;SDS011;871;47.034;15.394;2022-12-18T08:27:54;57.72;;;15.10;;
1747;SDS011;871;47.034;15.394;2022-12-18T08:30:21;59.05;;;17.35;;
1747;SDS011;871;47.034;15.394;2022-12-18T08:32:50;63.22;;;18.10;;
1747;SDS011;871;47.034;15.394;2022-12-18T08:35:19;59.08;;;14.45;;
1747;SDS011;871;47.034;15.394;2022-12-18T08:37:45;56.45;;;15.60;;
1747;SDS011;871;47.034;15.394;2022-12-18T08:40:11;55.17;;;15.05;;
1747;SDS011;871;47.034;15.394;2022-12-18T08:42:37;55.92;;;17.00;;
1747;SDS011;871;47.034;15.394;2022-12-18T08:45:22;67.63;;;19.55;;
1747;SDS011;871;47.034;15.394;2022-12-18T08:47:49;62.22;;;19.75;;
1747;SDS011;871;47.034;15.394;2022-12-18T08:50:15;57.78;;;17.23;;
1747;SDS011;871;47.034;15.394;2022-12-18T08:52:42;55.15;;;15.07;;
1747;SDS011;871;47.034;15.394;2022-12-18T08:55:08;59.95;;;19.65;;
1747;SDS011;871;47.034;15.394;2022-12-18T08:57:35;57.72;;;16.17;;
1747;SDS011;871;47.034;15.394;2022-12-18T09:00:01;59.30;;;17.00;;
1747;SDS011;871;47.034;15.394;2022-12-18T09:02:28;60.17;;;15.38;;
1747;SDS011;871;47.034;15.394;2022-12-18T09:04:54;60.78;;;15.50;;
1747;SDS011;871;47.034;15.394;2022-12-18T09:07:20;61.45;;;15.23;;
1747;SDS011;871;47.034;15.394;2022-12-18T09:09:46;63.75;;;18.08;;
1747;SDS011;871;47.034;15.394;2022-12-18T09:12:12;63.97;;;17.57;;
1747;SDS011;871;47.034;15.394;2022-12-18T09:14:38;63.95;;;17.23;;
1747;SDS011;871;47.034;15.394;2022-12-18T09:17:04;58.45;;;14.82;;
1747;SDS011;871;47.034;15.394;2022-12-18T09:19:30;59.22;;;16.80;;
1747;SDS011;871;47.034;15.394;2022-12-18T09:21:57;67.03;;;19.52;;
1747;SDS011;871;47.034;15.394;2022-12-18T09:24:23;79.50;;;20.42;;
1747;SDS011;871;47.034;15.394;2022-12-18T09:26:52;63.15;;;17.55;;
1747;SDS011;871;47.034;15.394;2022-12-18T09:29:18;55.53;;;16.63;;
1747;SDS011;871;47.034;15.394;2022-12-18T09:31:44;62.00;;;18.48;;
1747;SDS011;871;47.034;15.394;2022-12-18T09:34:10;62.47;;;18.40;;
1747;SDS011;871;47.034;15.394;2022-12-18T09:36:36;61.95;;;17.95;;
1747;SDS011;871;47.034;15.394;2022-12-18T09:39:02;71.18;;;18.30;;
1747;SDS011;871;47.034;15.394;2022-12-18T09:44:01;59.58;;;18.08;;
1747;SDS011;871;47.034;15.394;2022-12-18T09:46:31;59.88;;;17.77;;
1747;SDS011;871;47.034;15.394;2022-12-18T09:48:59;64.05;;;19.17;;
1747;SDS011;871;47.034;15.394;2022-12-18T09:51:32;57.33;;;16.65;;
1747;SDS011;871;47.034;15.394;2022-12-18T09:54:01;68.47;;;17.92;;
1747;SDS011;871;47.034;15.394;2022-12-18T09:56:29;67.80;;;19.63;;
1747;SDS011;871;47.034;15.394;2022-12-18T09:58:59;59.35;;;15.50;;
1747;SDS011;871;47.034;15.394;2022-12-18T10:01:26;61.50;;;16.30;;
1747;SDS011;871;47.034;15.394;2022-12-18T10:03:52;57.10;;;15.10;;
1747;SDS011;871;47.034;15.394;2022-12-18T10:08:59;61.72;;;18.02;;
1747;SDS011;871;47.034;15.394;2022-12-18T10:16:41;65.82;;;19.70;;
1747;SDS011;871;47.034;15.394;2022-12-18T10:26:40;58.80;;;15.68;;
1747;SDS011;871;47.034;15.394;2022-12-18T10:29:16;59.40;;;15.82;;
1747;SDS011;871;47.034;15.394;2022-12-18T10:31:42;70.57;;;17.17;;
1747;SDS011;871;47.034;15.394;2022-12-18T10:34:12;60.20;;;15.70;;
1747;SDS011;871;47.034;15.394;2022-12-18T10:36:39;66.63;;;16.60;;
1747;SDS011;871;47.034;15.394;2022-12-18T10:39:21;66.93;;;16.27;;
1747;SDS011;871;47.034;15.394;2022-12-18T10:41:48;61.10;;;15.23;;
1747;SDS011;871;47.034;15.394;2022-12-18T10:44:18;61.60;;;16.95;;
1747;SDS011;871;47.034;15.394;2022-12-18T10:46:45;60.63;;;16.60;;
1747;SDS011;871;47.034;15.394;2022-12-18T10:52:15;63.88;;;16.48;;
1747;SDS011;871;47.034;15.394;2022-12-18T10:54:46;63.13;;;17.17;;
1747;SDS011;871;47.034;15.394;2022-12-18T10:57:14;64.28;;;18.58;;
1747;SDS011;871;47.034;15.394;2022-12-18T10:59:51;73.53;;;19.27;;
1747;SDS011;871;47.034;15.394;2022-12-18T11:02:27;68.47;;;16.50;;
1747;SDS011;871;47.034;15.394;2022-12-18T11:04:57;66.47;;;17.08;;
1747;SDS011;871;47.034;15.394;2022-12-18T11:07:23;66.20;;;18.50;;
1747;SDS011;871;47.034;15.394;2022-12-18T11:09:59;63.83;;;15.95;;
1747;SDS011;871;47.034;15.394;2022-12-18T11:12:29;67.55;;;18.30;;
1747;SDS011;871;47.034;15.394;2022-12-18T11:14:55;71.93;;;18.77;;
1747;SDS011;871;47.034;15.394;2022-12-18T11:17:25;64.00;;;17.48;;
1747;SDS011;871;47.034;15.394;2022-12-18T11:19:55;67.95;;;17.25;;
1747;SDS011;871;47.034;15.394;2022-12-18T11:22:31;68.28;;;18.17;;
1747;SDS011;871;47.034;15.394;2022-12-18T11:24:59;69.40;;;17.23;;
1747;SDS011;871;47.034;15.394;2022-12-18T11:27:26;68.55;;;18.73;;
1747;SDS011;871;47.034;15.394;2022-12-18T11:30:06;66.75;;;18.95;;
1747;SDS011;871;47.034;15.394;2022-12-18T11:32:37;70.70;;;21.08;;
1747;SDS011;871;47.034;15.394;2022-12-18T11:37:33;72.88;;;19.88;;
1747;SDS011;871;47.034;15.394;2022-12-18T11:43:00;66.90;;;17.45;;
1747;SDS011;871;47.034;15.394;2022-12-18T11:45:34;71.03;;;19.20;;
1747;SDS011;871;47.034;15.394;2022-12-18T11:48:03;70.63;;;18.77;;
1747;SDS011;871;47.034;15.394;2022-12-18T11:50:33;64.60;;;17.77;;
1747;SDS011;871;47.034;15.394;2022-12-18T11:53:03;66.30;;;18.20;;
1747;SDS011;871;47.034;15.394;2022-12-18T12:00:43;66.28;;;20.30;;
1747;SDS011;871;47.034;15.394;2022-12-18T12:03:27;72.97;;;19.80;;
1747;SDS011;871;47.034;15.394;2022-12-18T12:06:08;77.32;;;23.48;;
1747;SDS011;871;47.034;15.394;2022-12-18T12:18:55;70.75;;;21.90;;
1747;SDS011;871;47.034;15.394;2022-12-18T12:29:18;67.35;;;18.63;;
1747;SDS011;871;47.034;15.394;2022-12-18T12:39:41;70.32;;;19.23;;
1747;SDS011;871;47.034;15.394;2022-12-18T12:42:14;82.97;;;25.38;;
1747;SDS011;871;47.034;15.394;2022-12-18T12:44:59;78.47;;;23.55;;
1747;SDS011;871;47.034;15.394;2022-12-18T12:47:28;75.50;;;22.30;;
1747;SDS011;871;47.034;15.394;2022-12-18T12:49:58;77.75;;;23.60;;
1747;SDS011;871;47.034;15.394;2022-12-18T12:54:53;81.75;;;24.55;;
1747;SDS011;871;47.034;15.394;2022-12-18T13:07:31;70.43;;;23.05;;
1747;SDS011;871;47.034;15.394;2022-12-18T13:12:37;72.50;;;20.20;;
1747;SDS011;871;47.034;15.394;2022-12-18T13:18:03;70.68;;;21.75;;
1747;SDS011;871;47.034;15.394;2022-12-18T13:20:33;81.85;;;23.08;;
1747;SDS011;871;47.034;15.394;2022-12-18T13:23:00;80.97;;;22.77;;
1747;SDS011;871;47.034;15.394;2022-12-18T13:25:33;78.13;;;22.58;;
1747;SDS011;871;47.034;15.394;2022-12-18T13:38:39;80.88;;;20.08;;
1747;SDS011;871;47.034;15.394;2022-12-18T13:43:44;77.55;;;22.13;;
1747;SDS011;871;47.034;15.394;2022-12-18T13:48:48;65.32;;;19.15;;
1747;SDS011;871;47.034;15.394;2022-12-18T13:51:16;75.22;;;20.67;;
1747;SDS011;871;47.034;15.394;2022-12-18T13:53:44;67.70;;;18.38;;
1747;SDS011;871;47.034;15.394;2022-12-18T13:56:17;74.93;;;20.67;;
1747;SDS011;871;47.034;15.394;2022-12-18T13:58:43;78.68;;;24.20;;
1747;SDS011;871;47.034;15.394;2022-12-18T14:01:22;77.82;;;22.33;;
1747;SDS011;871;47.034;15.394;2022-12-18T14:03:48;78.95;;;23.75;;
1747;SDS011;871;47.034;15.394;2022-12-18T14:06:15;86.10;;;21.05;;
1747;SDS011;871;47.034;15.394;2022-12-18T14:08:42;79.93;;;22.95;;
1747;SDS011;871;47.034;15.394;2022-12-18T14:11:17;76.68;;;24.35;;
1747;SDS011;871;47.034;15.394;2022-12-18T14:13:45;78.75;;;25.13;;
1747;SDS011;871;47.034;15.394;2022-12-18T14:16:12;69.60;;;21.85;;
1747;SDS011;871;47.034;15.394;2022-12-18T14:18:47;79.72;;;19.90;;
1747;SDS011;871;47.034;15.394;2022-12-18T14:21:18;76.93;;;21.20;;
1747;SDS011;871;47.034;15.394;2022-12-18T14:23:45;77.93;;;22.42;;
1747;SDS011;871;47.034;15.394;2022-12-18T14:26:27;78.65;;;20.80;;
1747;SDS011;871;47.034;15.394;2022-12-18T14:28:55;72.15;;;18.27;;
1747;SDS011;871;47.034;15.394;2022-12-18T14:31:24;68.00;;;18.00;;
1747;SDS011;871;47.034;15.394;2022-12-18T14:33:51;81.50;;;21.80;;
1747;SDS011;871;47.034;15.394;2022-12-18T14:36:18;83.28;;;24.90;;
1747;SDS011;871;47.034;15.394;2022-12-18T14:38:48;87.13;;;25.40;;
1747;SDS011;871;47.034;15.394;2022-12-18T14:41:16;72.05;;;19.90;;
1747;SDS011;871;47.034;15.394;2022-12-18T14:43:44;70.78;;;22.73;;
1747;SDS011;871;47.034;15.394;2022-12-18T14:49:17;75.35;;;20.45;;
1747;SDS011;871;47.034;15.394;2022-12-18T14:51:55;86.90;;;22.13;;
1747;SDS011;871;47.034;15.394;2022-12-18T14:54:21;78.72;;;19.35;;
1747;SDS011;871;47.034;15.394;2022-12-18T14:56:49;73.85;;;23.17;;
1747;SDS011;871;47.034;15.394;2022-12-18T14:59:19;74.63;;;22.38;;
1747;SDS011;871;47.034;15.394;2022-12-18T15:01:58;77.03;;;22.58;;
1747;SDS011;871;47.034;15.394;2022-12-18T15:04:29;78.63;;;23.02;;
1747;SDS011;871;47.034;15.394;2022-12-18T15:09:42;83.80;;;22.65;;
1747;SDS011;871;47.034;15.394;2022-12-18T15:12:34;77.43;;;22.75;;
1747;SDS011;871;47.034;15.394;2022-12-18T15:14:58;87.35;;;23.02;;
1747;SDS011;871;47.034;15.394;2022-12-18T15:17:25;75.28;;;21.73;;
1747;SDS011;871;47.034;15.394;2022-12-18T15:19:53;69.35;;;22.35;;
1747;SDS011;871;47.034;15.394;2022-12-18T15:24:54;83.43;;;21.13;;
1747;SDS011;871;47.034;15.394;2022-12-18T15:32:33;68.50;;;19.52;;
1747;SDS011;871;47.034;15.394;2022-12-18T15:35:41;80.18;;;17.48;;
1747;SDS011;871;47.034;15.394;2022-12-18T15:37:49;73.75;;;18.77;;
1747;SDS011;871;47.034;15.394;2022-12-18T15:40:17;74.30;;;19.95;;
1747;SDS011;871;47.034;15.394;2022-12-18T15:42:43;67.85;;;18.05;;
1747;SDS011;871;47.034;15.394;2022-12-18T15:45:30;74.80;;;21.15;;
1747;SDS011;871;47.034;15.394;2022-12-18T15:47:56;72.88;;;18.88;;
1747;SDS011;871;47.034;15.394;2022-12-18T15:50:25;68.10;;;19.40;;
1747;SDS011;871;47.034;15.394;2022-12-18T15:52:52;78.00;;;19.45;;
1747;SDS011;871;47.034;15.394;2022-12-18T15:55:21;58.17;;;14.45;;
1747;SDS011;871;47.034;15.394;2022-12-18T15:58:07;74.30;;;21.83;;
1747;SDS011;871;47.034;15.394;2022-12-18T16:00:35;77.13;;;19.95;;
1747;SDS011;871;47.034;15.394;2022-12-18T16:03:03;71.10;;;20.10;;
1747;SDS011;871;47.034;15.394;2022-12-18T16:05:29;53.05;;;11.25;;
1747;SDS011;871;47.034;15.394;2022-12-18T16:07:56;72.35;;;19.10;;
1747;SDS011;871;47.034;15.394;2022-12-18T16:10:23;83.63;;;21.25;;
1747;SDS011;871;47.034;15.394;2022-12-18T16:12:50;50.78;;;13.57;;
1747;SDS011;871;47.034;15.394;2022-12-18T16:15:16;75.32;;;19.13;;
1747;SDS011;871;47.034;15.394;2022-12-18T16:17:43;65.75;;;19.48;;
1747;SDS011;871;47.034;15.394;2022-12-18T16:20:13;72.53;;;17.90;;
1747;SDS011;871;47.034;15.394;2022-12-18T16:22:40;68.40;;;19.42;;
1747;SDS011;871;47.034;15.394;2022-12-18T16:25:10;75.72;;;19.58;;
1747;SDS011;871;47.034;15.394;2022-12-18T16:27:42;73.57;;;23.50;;
1747;SDS011;871;47.034;15.394;2022-12-18T16:30:12;82.90;;;23.70;;
1747;SDS011;871;47.034;15.394;2022-12-18T16:32:38;82.03;;;24.98;;
1747;SDS011;871;47.034;15.394;2022-12-18T16:35:08;72.03;;;18.70;;
1747;SDS011;871;47.034;15.394;2022-12-18T16:37:34;73.18;;;18.42;;
1747;SDS011;871;47.034;15.394;2022-12-18T16:40:01;66.75;;;18.33;;
1747;SDS011;871;47.034;15.394;2022-12-18T16:42:28;80.05;;;22.77;;
1747;SDS011;871;47.034;15.394;2022-12-18T16:44:54;77.28;;;23.08;;
1747;SDS011;871;47.034;15.394;2022-12-18T16:47:20;79.60;;;23.92;;
1747;SDS011;871;47.034;15.394;2022-12-18T16:49:47;84.13;;;23.33;;
1747;SDS011;871;47.034;15.394;2022-12-18T16:52:16;90.35;;;26.13;;
1747;SDS011;871;47.034;15.394;2022-12-18T16:54:43;95.00;;;23.98;;
1747;SDS011;871;47.034;15.394;2022-12-18T16:57:15;77.70;;;24.63;;
1747;SDS011;871;47.034;15.394;2022-12-18T16:59:44;87.68;;;24.60;;
1747;SDS011;871;47.034;15.394;2022-12-18T17:02:14;79.05;;;23.45;;
1747;SDS011;871;47.034;15.394;2022-12-18T17:04:42;85.97;;;23.80;;
1747;SDS011;871;47.034;15.394;2022-12-18T17:07:10;113.45;;;32.72;;
1747;SDS011;871;47.034;15.394;2022-12-18T17:09:37;105.32;;;29.52;;
1747;SDS011;871;47.034;15.394;2022-12-18T17:12:03;85.38;;;23.98;;
1747;SDS011;871;47.034;15.394;2022-12-18T17:14:30;91.32;;;23.85;;
1747;SDS011;871;47.034;15.394;2022-12-18T17:16:56;78.75;;;22.63;;
1747;SDS011;871;47.034;15.394;2022-12-18T17:19:24;66.35;;;18.35;;
1747;SDS011;871;47.034;15.394;2022-12-18T17:21:52;73.60;;;20.30;;
1747;SDS011;871;47.034;15.394;2022-12-18T17:24:19;76.00;;;21.08;;
1747;SDS011;871;47.034;15.394;2022-12-18T17:26:45;86.07;;;23.13;;
1747;SDS011;871;47.034;15.394;2022-12-18T17:29:13;83.82;;;20.98;;
1747;SDS011;871;47.034;15.394;2022-12-18T17:31:39;83.90;;;22.02;;
1747;SDS011;871;47.034;15.394;2022-12-18T17:34:06;86.40;;;23.77;;
1747;SDS011;871;47.034;15.394;2022-12-18T17:36:33;60.95;;;19.17;;
1747;SDS011;871;47.034;15.394;2022-12-18T17:39:00;67.28;;;14.77;;
1747;SDS011;871;47.034;15.394;2022-12-18T17:41:27;78.00;;;21.90;;
1747;SDS011;871;47.034;15.394;2022-12-18T17:43:55;76.38;;;20.48;;
1747;SDS011;871;47.034;15.394;2022-12-18T17:46:22;78.43;;;23.23;;
1747;SDS011;871;47.034;15.394;2022-12-18T17:48:50;87.38;;;26.45;;
1747;SDS011;871;47.034;15.394;2022-12-18T17:51:17;72.78;;;23.30;;
1747;SDS011;871;47.034;15.394;2022-12-18T17:53:43;74.05;;;19.55;;
1747;SDS011;871;47.034;15.394;2022-12-18T17:56:13;85.50;;;23.40;;
1747;SDS011;871;47.034;15.394;2022-12-18T17:58:41;75.50;;;20.73;;
1747;SDS011;871;47.034;15.394;2022-12-18T18:01:08;75.45;;;22.88;;
1747;SDS011;871;47.034;15.394;2022-12-18T18:03:34;74.63;;;21.48;;
1747;SDS011;871;47.034;15.394;2022-12-18T18:06:01;77.50;;;20.65;;
1747;SDS011;871;47.034;15.394;2022-12-18T18:08:28;74.35;;;20.05;;
1747;SDS011;871;47.034;15.394;2022-12-18T18:10:56;79.90;;;20.25;;
1747;SDS011;871;47.034;15.394;2022-12-18T18:13:45;78.95;;;23.10;;
1747;SDS011;871;47.034;15.394;2022-12-18T18:16:28;84.22;;;23.75;;
1747;SDS011;871;47.034;15.394;2022-12-18T18:18:58;82.72;;;21.58;;
1747;SDS011;871;47.034;15.394;2022-12-18T18:21:25;91.18;;;24.20;;
1747;SDS011;871;47.034;15.394;2022-12-18T18:23:51;85.60;;;21.35;;
1747;SDS011;871;47.034;15.394;2022-12-18T18:26:18;73.78;;;20.40;;
1747;SDS011;871;47.034;15.394;2022-12-18T18:28:46;88.53;;;22.63;;
1747;SDS011;871;47.034;15.394;2022-12-18T18:31:12;98.53;;;20.77;;
1747;SDS011;871;47.034;15.394;2022-12-18T18:33:38;76.18;;;20.67;;
1747;SDS011;871;47.034;15.394;2022-12-18T18:36:07;85.07;;;21.95;;
1747;SDS011;871;47.034;15.394;2022-12-18T18:38:34;80.40;;;21.73;;
1747;SDS011;871;47.034;15.394;2022-12-18T18:41:01;71.85;;;22.02;;
1747;SDS011;871;47.034;15.394;2022-12-18T18:43:28;76.88;;;23.02;;
1747;SDS011;871;47.034;15.394;2022-12-18T18:45:55;93.78;;;25.48;;
1747;SDS011;871;47.034;15.394;2022-12-18T18:48:22;80.65;;;23.05;;
1747;SDS011;871;47.034;15.394;2022-12-18T18:50:55;88.63;;;27.20;;
1747;SDS011;871;47.034;15.394;2022-12-18T18:53:22;89.80;;;25.25;;
1747;SDS011;871;47.034;15.394;2022-12-18T18:55:49;79.43;;;23.92;;
1747;SDS011;871;47.034;15.394;2022-12-18T18:58:16;83.63;;;24.10;;
1747;SDS011;871;47.034;15.394;2022-12-18T19:00:42;78.85;;;18.35;;
1747;SDS011;871;47.034;15.394;2022-12-18T19:03:11;63.50;;;17.90;;
1747;SDS011;871;47.034;15.394;2022-12-18T19:05:37;63.40;;;16.88;;
1747;SDS011;871;47.034;15.394;2022-12-18T19:08:03;80.97;;;19.75;;
1747;SDS011;871;47.034;15.394;2022-12-18T19:10:31;83.43;;;21.60;;
1747;SDS011;871;47.034;15.394;2022-12-18T19:12:57;60.10;;;12.65;;
1747;SDS011;871;47.034;15.394;2022-12-18T19:16:04;65.13;;;16.55;;
1747;SDS011;871;47.034;15.394;2022-12-18T19:18:30;79.07;;;19.05;;
1747;SDS011;871;47.034;15.394;2022-12-18T19:20:58;66.70;;;17.75;;
1747;SDS011;871;47.034;15.394;2022-12-18T19:23:45;68.30;;;15.23;;
1747;SDS011;871;47.034;15.394;2022-12-18T19:26:11;77.55;;;20.60;;
1747;SDS011;871;47.034;15.394;2022-12-18T19:28:38;74.28;;;19.38;;
1747;SDS011;871;47.034;15.394;2022-12-18T19:31:05;78.50;;;21.65;;
1747;SDS011;871;47.034;15.394;2022-12-18T19:33:33;77.53;;;23.40;;
1747;SDS011;871;47.034;15.394;2022-12-18T19:36:00;71.43;;;19.73;;
1747;SDS011;871;47.034;15.394;2022-12-18T19:38:26;63.25;;;18.42;;
1747;SDS011;871;47.034;15.394;2022-12-18T19:40:53;76.43;;;21.60;;
1747;SDS011;871;47.034;15.394;2022-12-18T19:43:19;81.22;;;22.85;;
1747;SDS011;871;47.034;15.394;2022-12-18T19:45:46;67.43;;;16.65;;
1747;SDS011;871;47.034;15.394;2022-12-18T19:48:12;65.90;;;16.17;;
1747;SDS011;871;47.034;15.394;2022-12-18T19:50:39;70.40;;;15.23;;
1747;SDS011;871;47.034;15.394;2022-12-18T19:53:06;75.00;;;21.38;;
1747;SDS011;871;47.034;15.394;2022-12-18T19:55:32;78.55;;;21.67;;
1747;SDS011;871;47.034;15.394;2022-12-18T19:57:59;83.18;;;22.70;;
1747;SDS011;871;47.034;15.394;2022-12-18T20:00:25;80.78;;;20.90;;
1747;SDS011;871;47.034;15.394;2022-12-18T20:02:51;74.20;;;18.38;;
1747;SDS011;871;47.034;15.394;2022-12-18T20:05:17;41.30;;;9.55;;
1747;SDS011;871;47.034;15.394;2022-12-18T20:07:49;70.65;;;16.02;;
1747;SDS011;871;47.034;15.394;2022-12-18T20:10:17;73.57;;;21.30;;
1747;SDS011;871;47.034;15.394;2022-12-18T20:12:43;89.60;;;21.33;;
1747;SDS011;871;47.034;15.394;2022-12-18T20:15:10;84.53;;;20.83;;
1747;SDS011;871;47.034;15.394;2022-12-18T20:17:36;63.58;;;16.70;;
1747;SDS011;871;47.034;15.394;2022-12-18T20:20:04;69.97;;;15.23;;
1747;SDS011;871;47.034;15.394;2022-12-18T20:22:31;74.93;;;18.90;;
1747;SDS011;871;47.034;15.394;2022-12-18T20:24:57;78.43;;;20.50;;
1747;SDS011;871;47.034;15.394;2022-12-18T20:27:23;83.35;;;22.17;;
1747;SDS011;871;47.034;15.394;2022-12-18T20:29:49;63.70;;;15.30;;
1747;SDS011;871;47.034;15.394;2022-12-18T20:32:16;78.60;;;18.75;;
1747;SDS011;871;47.034;15.394;2022-12-18T20:34:42;60.35;;;16.05;;
1747;SDS011;871;47.034;15.394;2022-12-18T20:37:09;45.88;;;8.93;;
1747;SDS011;871;47.034;15.394;2022-12-18T20:39:36;63.15;;;17.02;;
1747;SDS011;871;47.034;15.394;2022-12-18T20:42:02;69.72;;;15.10;;
1747;SDS011;871;47.034;15.394;2022-12-18T20:44:30;70.18;;;16.85;;
1747;SDS011;871;47.034;15.394;2022-12-18T20:46:56;76.55;;;18.52;;
1747;SDS011;871;47.034;15.394;2022-12-18T20:49:24;65.53;;;16.67;;
1747;SDS011;871;47.034;15.394;2022-12-18T20:51:52;66.05;;;17.15;;
1747;SDS011;871;47.034;15.394;2022-12-18T20:54:19;75.88;;;20.92;;
1747;SDS011;871;47.034;15.394;2022-12-18T20:56:45;56.97;;;11.23;;
1747;SDS011;871;47.034;15.394;2022-12-18T20:59:11;65.90;;;16.85;;
1747;SDS011;871;47.034;15.394;2022-12-18T21:01:37;73.32;;;16.50;;
1747;SDS011;871;47.034;15.394;2022-12-18T21:04:06;65.88;;;16.48;;
1747;SDS011;871;47.034;15.394;2022-12-18T21:06:32;54.85;;;11.02;;
1747;SDS011;871;47.034;15.394;2022-12-18T21:09:02;81.80;;;20.15;;
1747;SDS011;871;47.034;15.394;2022-12-18T21:11:30;54.50;;;11.38;;
1747;SDS011;871;47.034;15.394;2022-12-18T21:14:27;71.22;;;17.02;;
1747;SDS011;871;47.034;15.394;2022-12-18T21:16:53;82.40;;;19.48;;
1747;SDS011;871;47.034;15.394;2022-12-18T21:19:22;75.68;;;20.60;;
1747;SDS011;871;47.034;15.394;2022-12-18T21:21:48;66.35;;;14.80;;
1747;SDS011;871;47.034;15.394;2022-12-18T21:24:15;64.03;;;15.50;;
1747;SDS011;871;47.034;15.394;2022-12-18T21:26:45;87.75;;;20.20;;
1747;SDS011;871;47.034;15.394;2022-12-18T21:29:12;75.75;;;20.55;;
1747;SDS011;871;47.034;15.394;2022-12-18T21:31:39;79.13;;;19.58;;
1747;SDS011;871;47.034;15.394;2022-12-18T21:34:06;68.32;;;16.88;;
1747;SDS011;871;47.034;15.394;2022-12-18T21:36:33;66.45;;;18.48;;
1747;SDS011;871;47.034;15.394;2022-12-18T21:38:59;73.50;;;20.40;;
1747;SDS011;871;47.034;15.394;2022-12-18T21:41:26;71.65;;;18.80;;